createdAt,value
2022-11-12T00:00:01.905Z,7.57
2022-11-12T00:05:02.084Z,7.6
2022-11-12T00:10:02.094Z,7.6
2022-11-12T00:15:01.801Z,7.54
2022-11-12T00:20:02.059Z,7.46
2022-11-12T00:25:02.219Z,6.7
2022-11-12T00:30:02.210Z,6.53
2022-11-12T00:35:02.746Z,6.38
2022-11-12T00:40:01.607Z,6.7
2022-11-12T00:45:01.817Z,6.82
2022-11-12T00:50:01.866Z,7
2022-11-12T00:55:01.750Z,7.03
2022-11-12T01:00:01.543Z,7.09
2022-11-12T01:05:02.196Z,7.23
2022-11-12T01:10:01.386Z,7.33
2022-11-12T01:15:01.865Z,7.47
2022-11-12T01:20:01.962Z,7.56
2022-11-12T01:25:02.192Z,7.64
2022-11-12T01:30:02.256Z,7.67
2022-11-12T01:35:02.210Z,7.69
2022-11-12T01:40:02.054Z,7.65
2022-11-12T01:45:02.143Z,7.63
2022-11-12T01:50:01.503Z,7.59
2022-11-12T01:55:02.051Z,7.53
2022-11-12T02:00:01.443Z,7.43
2022-11-12T02:05:02.054Z,7.35
2022-11-12T02:10:01.349Z,7.28
2022-11-12T02:15:01.817Z,7.2
2022-11-12T02:20:01.871Z,7.15
2022-11-12T02:25:02.115Z,7.09
2022-11-12T02:30:02.016Z,7.04
2022-11-12T02:35:01.476Z,7
2022-11-12T02:40:01.696Z,6.9
2022-11-12T02:45:02.173Z,6.93
2022-11-12T02:50:02.294Z,6.87
2022-11-12T02:55:01.376Z,6.76
2022-11-12T03:00:01.391Z,6.7
2022-11-12T03:05:01.558Z,6.65
2022-11-12T03:10:01.822Z,6.64
2022-11-12T03:15:01.766Z,6.59
2022-11-12T03:20:02.053Z,6.53
2022-11-12T03:25:01.984Z,6.52
2022-11-12T03:30:01.493Z,6.48
2022-11-12T03:35:01.600Z,6.44
2022-11-12T03:40:01.768Z,6.41
2022-11-12T03:45:01.735Z,6.38
2022-11-12T03:50:01.435Z,6.41
2022-11-12T03:55:01.977Z,6.45
2022-11-12T04:00:01.609Z,6.39
2022-11-12T04:05:02.114Z,6.29
2022-11-12T04:10:01.560Z,6.21
2022-11-12T04:15:01.679Z,6.14
2022-11-12T04:20:01.550Z,6.1
2022-11-12T04:25:01.459Z,6
2022-11-12T04:30:01.667Z,5.97
2022-11-12T04:35:01.958Z,5.87
2022-11-12T04:40:02.008Z,5.79
2022-11-12T04:45:02.048Z,5.7
2022-11-12T04:50:02.229Z,5.64
2022-11-12T04:55:02.239Z,5.62
2022-11-12T05:00:02.295Z,5.54
2022-11-12T05:05:01.588Z,5.48
2022-11-12T05:10:01.806Z,5.34
2022-11-12T05:15:01.935Z,5.23
2022-11-12T05:20:01.424Z,5.21
2022-11-12T05:25:01.748Z,5.2
2022-11-12T05:30:01.918Z,5.09
2022-11-12T05:35:01.814Z,5.07
2022-11-12T05:40:01.438Z,5.06
2022-11-12T05:45:01.333Z,4.98
2022-11-12T05:50:01.681Z,4.86
2022-11-12T05:55:01.882Z,4.88
2022-11-12T06:00:01.691Z,4.83
2022-11-12T06:05:01.927Z,4.79
2022-11-12T06:10:01.287Z,4.78
2022-11-12T06:15:01.715Z,4.86
2022-11-12T06:20:02.019Z,4.97
2022-11-12T06:25:02.229Z,5.06
2022-11-12T06:30:02.207Z,5.06
2022-11-12T06:35:02.167Z,5.13
2022-11-12T06:40:02.070Z,5.13
2022-11-12T06:45:01.401Z,5.17
2022-11-12T06:50:01.544Z,5.23
2022-11-12T06:55:01.697Z,5.36
2022-11-12T07:00:02.011Z,5.41
2022-11-12T07:05:01.286Z,5.49
2022-11-12T07:10:01.609Z,5.54
2022-11-12T07:15:01.861Z,5.62
2022-11-12T07:20:03.849Z,5.68
2022-11-12T07:25:01.685Z,5.78
2022-11-12T07:30:01.939Z,5.84
2022-11-12T07:35:01.377Z,5.94
2022-11-12T07:40:01.508Z,5.92
2022-11-12T07:45:01.886Z,6.04
2022-11-12T07:50:02.060Z,6.13
2022-11-12T07:55:01.921Z,6.24
2022-11-12T08:00:01.990Z,6.49
2022-11-12T08:05:01.328Z,6.55
2022-11-12T08:10:01.781Z,6.7
2022-11-12T08:15:01.924Z,6.88
2022-11-12T08:20:02.152Z,7.11
2022-11-12T08:25:01.323Z,7.31
2022-11-12T08:30:01.889Z,7.42
2022-11-12T08:35:02.001Z,7.61
2022-11-12T08:40:02.109Z,7.76
2022-11-12T08:45:02.285Z,7.93
2022-11-12T08:50:01.610Z,8.06
2022-11-12T08:55:01.809Z,8.16
2022-11-12T09:00:01.928Z,8.29
2022-11-12T09:05:01.486Z,8.34
2022-11-12T09:10:02.101Z,8.43
2022-11-12T09:15:30.697Z,8.55
2022-11-12T09:20:01.571Z,8.64
2022-11-12T09:25:02.061Z,8.75
2022-11-12T09:30:01.467Z,8.82
2022-11-12T09:35:01.789Z,8.82
2022-11-12T09:40:02.002Z,8.82
2022-11-12T09:45:02.160Z,8.88
2022-11-12T09:50:02.160Z,8.94
2022-11-12T09:55:01.264Z,9.09
2022-11-12T10:00:01.712Z,9.24
2022-11-12T10:05:01.504Z,9.41
2022-11-12T10:10:01.528Z,9.59
2022-11-12T10:15:02.013Z,9.72
2022-11-12T10:20:02.197Z,9.7
2022-11-12T10:25:01.327Z,9.66
2022-11-12T10:30:01.831Z,9.77
2022-11-12T10:35:01.422Z,9.86
2022-11-12T10:40:02.071Z,9.94
2022-11-12T10:45:02.315Z,9.92
2022-11-12T10:50:01.631Z,10.06
2022-11-12T10:55:01.855Z,10.13
2022-11-12T11:00:02.005Z,10.24
2022-11-12T11:05:01.445Z,10.39
2022-11-12T11:10:01.851Z,10.53
2022-11-12T11:15:02.016Z,10.71
2022-11-12T11:20:01.362Z,10.83
2022-11-12T11:25:01.256Z,10.97
2022-11-12T11:30:01.686Z,11.08
2022-11-12T11:35:01.941Z,11.2
2022-11-12T11:40:01.991Z,11.26
2022-11-12T11:45:01.499Z,11.39
2022-11-12T11:50:01.827Z,11.57
2022-11-12T11:55:02.063Z,11.7
2022-11-12T12:00:02.191Z,11.81
2022-11-12T12:05:02.109Z,11.97
2022-11-12T12:10:06.235Z,12.13
2022-11-12T12:15:01.662Z,12.13
2022-11-12T12:20:01.969Z,12.15
2022-11-12T12:25:02.116Z,12.16
2022-11-12T12:30:01.788Z,12.14
2022-11-12T12:35:01.887Z,12.17
2022-11-12T12:40:01.304Z,12.06
2022-11-12T12:45:01.643Z,12
2022-11-12T12:50:01.992Z,12.02
2022-11-12T12:55:02.230Z,12.07
2022-11-12T13:00:01.465Z,12.25
2022-11-12T13:05:02.238Z,12.33
2022-11-12T13:10:01.977Z,12.4
2022-11-12T13:15:02.042Z,12.45
2022-11-12T13:20:02.145Z,12.57
2022-11-12T13:25:01.470Z,12.64
2022-11-12T13:30:01.873Z,12.77
2022-11-12T13:35:01.528Z,12.91
2022-11-12T13:40:01.441Z,12.91
2022-11-12T13:45:01.769Z,12.91
2022-11-12T13:50:02.063Z,12.91
2022-11-12T13:55:02.080Z,12.95
2022-11-12T14:00:02.239Z,12.97
2022-11-12T14:05:01.406Z,12.95
2022-11-12T14:10:01.884Z,12.88
2022-11-12T14:15:02.005Z,12.81
2022-11-12T14:20:01.281Z,12.74
2022-11-12T14:25:01.635Z,12.66
2022-11-12T14:30:01.748Z,12.57
2022-11-12T14:35:02.087Z,12.47
2022-11-12T14:40:01.991Z,12.43
2022-11-12T14:45:02.063Z,12.43
2022-11-12T14:50:02.220Z,12.38
2022-11-12T14:55:01.393Z,12.34
2022-11-12T15:00:01.739Z,12.23
2022-11-12T15:05:01.951Z,12.22
2022-11-12T15:10:02.342Z,12.1
2022-11-12T15:15:02.075Z,11.99
2022-11-12T15:20:02.251Z,11.87
2022-11-12T15:25:02.134Z,11.71
2022-11-12T15:30:01.416Z,11.64
2022-11-12T15:35:01.816Z,11.55
2022-11-12T15:40:01.917Z,11.43
2022-11-12T15:45:02.109Z,11.39
2022-11-12T15:50:01.483Z,11.33
2022-11-12T15:55:01.747Z,11.31
2022-11-12T16:00:07.750Z,11.25
2022-11-12T16:05:02.243Z,11.19
2022-11-12T16:10:01.281Z,11.1
2022-11-12T16:15:01.456Z,10.98
2022-11-12T16:20:01.845Z,10.87
2022-11-12T16:25:01.973Z,10.87
2022-11-12T16:30:01.459Z,10.81
2022-11-12T16:35:01.761Z,10.75
2022-11-12T16:40:01.470Z,10.72
2022-11-12T16:45:01.931Z,10.7
2022-11-12T16:50:02.042Z,10.69
2022-11-12T16:55:04.533Z,10.68
2022-11-12T17:00:01.582Z,10.62
2022-11-12T17:05:01.885Z,10.63
2022-11-12T17:10:01.250Z,10.66
2022-11-12T17:15:01.656Z,10.63
2022-11-12T17:20:01.901Z,10.58
2022-11-12T17:25:01.963Z,10.52
2022-11-12T17:30:01.689Z,10.44
2022-11-12T17:35:01.982Z,10.45
2022-11-12T17:40:01.792Z,10.37
2022-11-12T17:45:02.084Z,10.29
2022-11-12T17:50:01.563Z,10.22
2022-11-12T17:55:01.836Z,10.21
2022-11-12T18:00:01.898Z,10.16
2022-11-12T18:05:02.195Z,10.09
2022-11-12T18:10:01.552Z,10.07
2022-11-12T18:15:01.877Z,10.08
2022-11-12T18:20:02.230Z,10.05
2022-11-12T18:25:02.139Z,9.96
2022-11-12T18:30:02.020Z,9.94
2022-11-12T18:35:02.033Z,9.86
2022-11-12T18:40:02.183Z,9.79
2022-11-12T18:45:01.535Z,9.69
2022-11-12T18:50:08.259Z,9.71
2022-11-12T18:55:01.850Z,9.76
2022-11-12T19:00:01.563Z,9.84
2022-11-12T19:05:01.894Z,9.9
2022-11-12T19:10:01.797Z,9.86
2022-11-12T19:15:02.096Z,9.84
2022-11-12T19:20:02.126Z,9.84
2022-11-12T19:25:01.317Z,9.8
2022-11-12T19:30:03.287Z,9.79
2022-11-12T19:35:01.772Z,9.71
2022-11-12T19:40:02.035Z,9.74
2022-11-12T19:45:02.133Z,9.75
2022-11-12T19:50:01.995Z,9.65
2022-11-12T19:55:01.920Z,9.64
2022-11-12T20:00:02.034Z,9.57
2022-11-12T20:05:02.187Z,9.54
2022-11-12T20:10:01.655Z,9.45
2022-11-12T20:15:01.758Z,9.35
2022-11-12T20:20:02.129Z,9.24
2022-11-12T20:25:01.466Z,9.14
2022-11-12T20:30:01.764Z,9.05
2022-11-12T20:35:02.113Z,8.9
2022-11-12T20:40:02.007Z,8.81
2022-11-12T20:45:02.068Z,8.71
2022-11-12T20:50:02.244Z,8.63
2022-11-12T20:55:02.120Z,8.6
2022-11-12T21:00:01.323Z,8.53
2022-11-12T21:05:01.764Z,8.44
2022-11-12T21:10:02.104Z,8.37
2022-11-12T21:15:01.283Z,8.32
2022-11-12T21:20:01.529Z,8.3
2022-11-12T21:25:01.892Z,8.22
2022-11-12T21:30:02.123Z,8.13
2022-11-12T21:35:02.096Z,8.11
2022-11-12T21:40:02.202Z,8.06
2022-11-12T21:45:02.218Z,8.02
2022-11-12T21:50:01.404Z,7.93
2022-11-12T21:55:01.592Z,7.86
2022-11-12T22:00:26.595Z,7.75
2022-11-12T22:05:01.558Z,7.69
2022-11-12T22:10:01.828Z,7.6
2022-11-12T22:15:02.123Z,7.58
2022-11-12T22:20:01.632Z,7.49
2022-11-12T22:25:02.117Z,7.4
2022-11-12T22:30:02.226Z,7.37
2022-11-12T22:35:01.747Z,7.39
2022-11-12T22:40:01.905Z,7.37
2022-11-12T22:45:02.089Z,7.3
2022-11-12T22:50:01.947Z,7.35
2022-11-12T22:55:01.899Z,7.39
2022-11-12T23:00:01.849Z,7.45
2022-11-12T23:05:01.336Z,7.41
2022-11-12T23:10:01.796Z,7.39
2022-11-12T23:15:01.780Z,7.39
2022-11-12T23:20:01.735Z,7.32
2022-11-12T23:25:01.850Z,7.35
2022-11-12T23:30:01.647Z,7.48
2022-11-12T23:35:01.537Z,7.57
2022-11-12T23:40:01.609Z,7.78
2022-11-12T23:45:01.655Z,7.85
2022-11-12T23:50:01.928Z,7.88
2022-11-12T23:55:02.032Z,7.87
